ADDS TAF Board (Experimental) INFO Settings
IDs: Format: Expanded Condensed

KCLT - Charlotte/Douglas In, NC, US

Issued at 2057 UTC 25 May 2015
Updated at: 2322 UTC 25 May 2015
Time2252Z 26/00Z 26/01Z 26/02Z 26/03Z 26/04Z 26/05Z 26/06Z 26/07Z 26/08Z 26/09Z 26/10Z 26/11Z 26/12Z
Type OBS PRVL PRVL PRVL PRVL PRVL PRVL PRVL PRVL PRVL PRVL PRVL PRVL PRVL
VIS 10 >6 >6 >6 >6 >6 >6 >6 >6 >6 >6 >6 >6 >6
CIG 65 50 50 50 50 50 50 15 15 15 9 9 9 9
Cover BKN BKN BKN BKN BKN BKN BKN BKN BKN BKN OVC OVC OVC OVC
FltCat VFR VFR VFR VFR VFR VFR VFR MVFR MVFR MVFR IFR IFR IFR IFR
WX -- -- -- -- -- -- -- -- -- -- -- -- -- --
WDir 190 200 200 200 200 200 200 170 170 170 170 170 170 170
WSpd 7 9 9 9 9 9 9 7 7 7 5 5 5 5
WGst -- -- -- -- -- -- -- -- -- -- -- -- -- --
R05/23
XWnd -4 -4 -4 -4 -4 -4 -4 -6 -6 -6 -4 -4 -4 -4
HWnd -6 -8 -8 -8 -8 -8 -8 -4 -4 -4 -3 -3 -3 -3
R18/36
XWnd -2 -4 -4 -4 -4 -4 -4 1 1 1 1 1 1 1
HWnd 7 8 8 8 8 8 8 7 7 7 5 5 5 5

NOTE: TEMPO conditions in [brackets]. Keep in mind TEMPO conditions might be better (lower impact) than prevailing conditions.

Raw TAF
KCLT 252057Z 2521/2618 20009KT P6SM BKN050
  FM260600 17007KT P6SM BKN015
  FM260900 17005KT P6SM OVC009
  FM261400 18006KT P6SM OVC015
  FM261600 19008KT P6SM BKN030


Raw METAR
KCLT 252252Z 19007KT 10SM FEW050 BKN065 27/14 A3025 RMK AO2 SLP235 T02720139 $
KCLT 252152Z 21006KT 10SM FEW050 BKN065 28/13 A3025 RMK AO2 SLP235 T02780133
KCLT 252052Z 19006KT 10SM SCT050 BKN065 29/13 A3026 RMK AO2 SLP239 T02940133 56018

METAR Board
Radar Display
Forecast Discussion

TAF Board Legend

Potential Impact
Threat None Slight Moderate High
Visibility (sm) ≥5.1 5.1>X≥3 3>X≥1 <1
Ceiling (100 ft) ≥30.1 30.1>X≥10 10>X≥5 <5
Wind Speed (kt) <10 10≤X<20 20≤X<30 ≥30
Wind Gust (kt) <15 15≤X<25 25≤X<35 ≥35
Weather No Wx Reported VCTS,-TS,-FZRA,SN TS,FZRA +TS,+FZRA,+SN